sensor_id;sensor_type;location;lat;lon;timestamp;temperature;humidity
69938;DHT22;57248;47.320;15.998;2023-04-03T00:02:20;4.05;67.93
69938;DHT22;57248;47.320;15.998;2023-04-03T00:04:51;4.01;68.51
69938;DHT22;57248;47.320;15.998;2023-04-03T00:07:23;4.07;67.45
69938;DHT22;57248;47.320;15.998;2023-04-03T00:09:55;4.03;68.26
69938;DHT22;57248;47.320;15.998;2023-04-03T00:12:27;3.96;68.53
69938;DHT22;57248;47.320;15.998;2023-04-03T00:14:59;3.92;68.63
69938;DHT22;57248;47.320;15.998;2023-04-03T00:17:31;4.02;67.82
69938;DHT22;57248;47.320;15.998;2023-04-03T00:20:04;3.96;68.59
69938;DHT22;57248;47.320;15.998;2023-04-03T00:22:36;3.96;68.19
69938;DHT22;57248;47.320;15.998;2023-04-03T00:25:08;4.06;67.33
69938;DHT22;57248;47.320;15.998;2023-04-03T00:27:40;4.07;66.69
69938;DHT22;57248;47.320;15.998;2023-04-03T00:30:17;4.06;67.41
69938;DHT22;57248;47.320;15.998;2023-04-03T00:32:51;4.02;67.05
69938;DHT22;57248;47.320;15.998;2023-04-03T00:35:24;4.05;66.96
69938;DHT22;57248;47.320;15.998;2023-04-03T00:37:56;4.09;66.11
69938;DHT22;57248;47.320;15.998;2023-04-03T00:40:34;4.17;65.25
69938;DHT22;57248;47.320;15.998;2023-04-03T00:43:18;4.06;66.45
69938;DHT22;57248;47.320;15.998;2023-04-03T00:45:52;4.05;66.50
69938;DHT22;57248;47.320;15.998;2023-04-03T00:48:33;4.01;66.69
69938;DHT22;57248;47.320;15.998;2023-04-03T00:51:11;3.91;67.78
69938;DHT22;57248;47.320;15.998;2023-04-03T00:53:48;3.89;67.60
69938;DHT22;57248;47.320;15.998;2023-04-03T00:56:23;3.84;67.92
69938;DHT22;57248;47.320;15.998;2023-04-03T00:59:04;3.92;67.05
69938;DHT22;57248;47.320;15.998;2023-04-03T01:01:38;3.88;67.18
69938;DHT22;57248;47.320;15.998;2023-04-03T01:04:28;3.86;66.85
69938;DHT22;57248;47.320;15.998;2023-04-03T01:07:06;3.77;67.51
69938;DHT22;57248;47.320;15.998;2023-04-03T01:09:39;3.78;67.44
69938;DHT22;57248;47.320;15.998;2023-04-03T01:12:21;3.88;67.11
69938;DHT22;57248;47.320;15.998;2023-04-03T01:14:56;3.85;67.28
69938;DHT22;57248;47.320;15.998;2023-04-03T01:17:52;3.92;66.39
69938;DHT22;57248;47.320;15.998;2023-04-03T01:25:43;4.13;64.68
69938;DHT22;57248;47.320;15.998;2023-04-03T01:31:00;4.09;65.99
69938;DHT22;57248;47.320;15.998;2023-04-03T01:33:35;4.07;66.82
69938;DHT22;57248;47.320;15.998;2023-04-03T01:36:14;4.09;66.75
69938;DHT22;57248;47.320;15.998;2023-04-03T01:38:48;4.22;65.51
69938;DHT22;57248;47.320;15.998;2023-04-03T01:41:21;4.22;65.80
69938;DHT22;57248;47.320;15.998;2023-04-03T01:43:59;4.33;64.30
69938;DHT22;57248;47.320;15.998;2023-04-03T01:46:31;4.23;65.49
69938;DHT22;57248;47.320;15.998;2023-04-03T01:49:04;4.20;65.71
69938;DHT22;57248;47.320;15.998;2023-04-03T01:51:36;4.24;65.55
69938;DHT22;57248;47.320;15.998;2023-04-03T01:54:08;4.19;66.18
69938;DHT22;57248;47.320;15.998;2023-04-03T01:56:40;4.19;66.31
69938;DHT22;57248;47.320;15.998;2023-04-03T01:59:13;4.20;66.06
69938;DHT22;57248;47.320;15.998;2023-04-03T02:01:45;4.26;65.06
69938;DHT22;57248;47.320;15.998;2023-04-03T02:04:17;4.26;65.78
69938;DHT22;57248;47.320;15.998;2023-04-03T02:06:49;4.32;64.57
69938;DHT22;57248;47.320;15.998;2023-04-03T02:09:35;4.28;65.48
69938;DHT22;57248;47.320;15.998;2023-04-03T02:12:08;4.29;65.38
69938;DHT22;57248;47.320;15.998;2023-04-03T02:14:40;4.33;64.87
69938;DHT22;57248;47.320;15.998;2023-04-03T02:17:10;4.36;64.93
69938;DHT22;57248;47.320;15.998;2023-04-03T02:19:42;4.36;64.52
69938;DHT22;57248;47.320;15.998;2023-04-03T02:22:07;4.32;65.46
69938;DHT22;57248;47.320;15.998;2023-04-03T02:24:39;4.28;65.93
69938;DHT22;57248;47.320;15.998;2023-04-03T02:27:11;4.24;66.23
69938;DHT22;57248;47.320;15.998;2023-04-03T02:29:43;4.26;65.83
69938;DHT22;57248;47.320;15.998;2023-04-03T02:32:15;4.28;66.16
69938;DHT22;57248;47.320;15.998;2023-04-03T02:34:47;4.22;66.59
69938;DHT22;57248;47.320;15.998;2023-04-03T02:37:19;4.22;66.38
69938;DHT22;57248;47.320;15.998;2023-04-03T02:39:53;4.19;66.52
69938;DHT22;57248;47.320;15.998;2023-04-03T02:42:26;4.22;66.67
69938;DHT22;57248;47.320;15.998;2023-04-03T02:44:59;4.15;67.75
69938;DHT22;57248;47.320;15.998;2023-04-03T02:47:32;4.22;66.32
69938;DHT22;57248;47.320;15.998;2023-04-03T02:50:04;4.23;66.53
69938;DHT22;57248;47.320;15.998;2023-04-03T02:52:36;4.17;67.17
69938;DHT22;57248;47.320;15.998;2023-04-03T02:55:08;4.16;67.56
69938;DHT22;57248;47.320;15.998;2023-04-03T02:57:47;4.15;67.68
69938;DHT22;57248;47.320;15.998;2023-04-03T03:00:20;4.12;67.36
69938;DHT22;57248;47.320;15.998;2023-04-03T03:02:51;4.13;68.09
69938;DHT22;57248;47.320;15.998;2023-04-03T03:05:23;4.15;67.57
69938;DHT22;57248;47.320;15.998;2023-04-03T03:07:57;4.16;67.46
69938;DHT22;57248;47.320;15.998;2023-04-03T03:10:42;4.16;68.08
69938;DHT22;57248;47.320;15.998;2023-04-03T03:13:14;4.15;67.32
69938;DHT22;57248;47.320;15.998;2023-04-03T03:15:46;4.19;67.08
69938;DHT22;57248;47.320;15.998;2023-04-03T03:18:18;4.34;64.85
69938;DHT22;57248;47.320;15.998;2023-04-03T03:20:55;4.37;64.40
69938;DHT22;57248;47.320;15.998;2023-04-03T03:23:28;4.36;64.84
69938;DHT22;57248;47.320;15.998;2023-04-03T03:26:04;4.30;65.63
69938;DHT22;57248;47.320;15.998;2023-04-03T03:28:38;4.29;66.42
69938;DHT22;57248;47.320;15.998;2023-04-03T03:31:11;4.28;65.98
69938;DHT22;57248;47.320;15.998;2023-04-03T03:33:43;4.30;65.86
69938;DHT22;57248;47.320;15.998;2023-04-03T03:36:15;4.28;66.93
69938;DHT22;57248;47.320;15.998;2023-04-03T03:38:47;4.32;65.99
69938;DHT22;57248;47.320;15.998;2023-04-03T03:41:19;4.28;66.41
69938;DHT22;57248;47.320;15.998;2023-04-03T03:43:52;4.32;66.04
69938;DHT22;57248;47.320;15.998;2023-04-03T03:46:26;4.26;66.63
69938;DHT22;57248;47.320;15.998;2023-04-03T03:48:58;4.26;67.05
69938;DHT22;57248;47.320;15.998;2023-04-03T03:51:30;4.26;66.63
69938;DHT22;57248;47.320;15.998;2023-04-03T03:54:03;4.24;66.47
69938;DHT22;57248;47.320;15.998;2023-04-03T03:56:35;4.29;66.89
69938;DHT22;57248;47.320;15.998;2023-04-03T03:59:07;4.26;67.11
69938;DHT22;57248;47.320;15.998;2023-04-03T04:01:33;4.26;66.90
69938;DHT22;57248;47.320;15.998;2023-04-03T04:04:05;4.23;67.06
69938;DHT22;57248;47.320;15.998;2023-04-03T04:06:37;4.26;66.58
69938;DHT22;57248;47.320;15.998;2023-04-03T04:09:10;4.28;66.20
69938;DHT22;57248;47.320;15.998;2023-04-03T04:11:48;4.23;66.82
69938;DHT22;57248;47.320;15.998;2023-04-03T04:14:21;4.28;67.11
69938;DHT22;57248;47.320;15.998;2023-04-03T04:16:54;4.30;65.75
69938;DHT22;57248;47.320;15.998;2023-04-03T04:19:26;4.24;66.93
69938;DHT22;57248;47.320;15.998;2023-04-03T04:21:58;4.22;67.07
69938;DHT22;57248;47.320;15.998;2023-04-03T04:24:32;4.17;67.16
69938;DHT22;57248;47.320;15.998;2023-04-03T04:27:06;4.19;67.70
69938;DHT22;57248;47.320;15.998;2023-04-03T04:29:38;4.23;66.55
69938;DHT22;57248;47.320;15.998;2023-04-03T04:32:10;4.23;66.38
69938;DHT22;57248;47.320;15.998;2023-04-03T04:34:42;4.28;65.85
69938;DHT22;57248;47.320;15.998;2023-04-03T04:37:08;4.29;66.46
69938;DHT22;57248;47.320;15.998;2023-04-03T04:39:39;4.24;66.22
69938;DHT22;57248;47.320;15.998;2023-04-03T04:42:11;4.30;65.76
69938;DHT22;57248;47.320;15.998;2023-04-03T04:44:47;4.30;66.05
69938;DHT22;57248;47.320;15.998;2023-04-03T04:47:19;4.32;65.65
69938;DHT22;57248;47.320;15.998;2023-04-03T04:49:51;4.29;66.19
69938;DHT22;57248;47.320;15.998;2023-04-03T04:52:17;4.32;66.02
69938;DHT22;57248;47.320;15.998;2023-04-03T04:54:49;4.32;65.94
69938;DHT22;57248;47.320;15.998;2023-04-03T04:57:21;4.32;66.05
69938;DHT22;57248;47.320;15.998;2023-04-03T04:59:55;4.30;65.76
69938;DHT22;57248;47.320;15.998;2023-04-03T05:02:28;4.32;65.64
69938;DHT22;57248;47.320;15.998;2023-04-03T05:05:01;4.33;66.46
69938;DHT22;57248;47.320;15.998;2023-04-03T05:07:39;4.33;66.47
69938;DHT22;57248;47.320;15.998;2023-04-03T05:10:12;4.30;66.80
69938;DHT22;57248;47.320;15.998;2023-04-03T05:12:53;4.32;66.78
69938;DHT22;57248;47.320;15.998;2023-04-03T05:15:26;4.32;66.81
69938;DHT22;57248;47.320;15.998;2023-04-03T05:17:58;4.29;66.50
69938;DHT22;57248;47.320;15.998;2023-04-03T05:20:31;4.28;68.05
69938;DHT22;57248;47.320;15.998;2023-04-03T05:23:04;4.43;67.02
69938;DHT22;57248;47.320;15.998;2023-04-03T05:25:40;4.57;66.66
69938;DHT22;57248;47.320;15.998;2023-04-03T05:28:20;4.49;67.34
69938;DHT22;57248;47.320;15.998;2023-04-03T05:30:57;4.49;67.87
69938;DHT22;57248;47.320;15.998;2023-04-03T05:33:33;4.43;67.22
69938;DHT22;57248;47.320;15.998;2023-04-03T05:36:08;4.42;67.38
69938;DHT22;57248;47.320;15.998;2023-04-03T05:38:44;4.42;67.86
69938;DHT22;57248;47.320;15.998;2023-04-03T05:41:16;4.44;67.77
69938;DHT22;57248;47.320;15.998;2023-04-03T05:43:49;4.40;67.48
69938;DHT22;57248;47.320;15.998;2023-04-03T05:46:24;4.46;67.67
69938;DHT22;57248;47.320;15.998;2023-04-03T05:49:00;4.43;67.45
69938;DHT22;57248;47.320;15.998;2023-04-03T05:51:33;4.47;67.72
69938;DHT22;57248;47.320;15.998;2023-04-03T05:54:22;4.49;66.60
69938;DHT22;57248;47.320;15.998;2023-04-03T05:57:07;4.52;68.34
69938;DHT22;57248;47.320;15.998;2023-04-03T05:59:40;4.61;68.34
69938;DHT22;57248;47.320;15.998;2023-04-03T06:02:16;4.87;67.03
69938;DHT22;57248;47.320;15.998;2023-04-03T06:04:50;5.44;66.07
69938;DHT22;57248;47.320;15.998;2023-04-03T06:07:18;5.25;66.40
69938;DHT22;57248;47.320;15.998;2023-04-03T06:10:06;5.77;64.90
69938;DHT22;57248;47.320;15.998;2023-04-03T06:12:39;6.26;63.76
69938;DHT22;57248;47.320;15.998;2023-04-03T06:15:11;6.55;64.20
69938;DHT22;57248;47.320;15.998;2023-04-03T06:17:43;7.40;62.19
69938;DHT22;57248;47.320;15.998;2023-04-03T06:20:15;7.35;61.05
69938;DHT22;57248;47.320;15.998;2023-04-03T06:22:48;7.38;59.84
69938;DHT22;57248;47.320;15.998;2023-04-03T06:25:20;7.35;60.64
69938;DHT22;57248;47.320;15.998;2023-04-03T06:27:46;7.81;59.53
69938;DHT22;57248;47.320;15.998;2023-04-03T06:30:20;6.77;61.48
69938;DHT22;57248;47.320;15.998;2023-04-03T06:32:52;6.73;60.91
69938;DHT22;57248;47.320;15.998;2023-04-03T06:35:24;6.18;62.14
69938;DHT22;57248;47.320;15.998;2023-04-03T06:37:56;6.10;63.00
69938;DHT22;57248;47.320;15.998;2023-04-03T06:40:24;6.17;62.07
69938;DHT22;57248;47.320;15.998;2023-04-03T06:42:57;6.11;62.78
69938;DHT22;57248;47.320;15.998;2023-04-03T06:45:29;5.90;63.41
69938;DHT22;57248;47.320;15.998;2023-04-03T06:48:01;6.03;62.43
69938;DHT22;57248;47.320;15.998;2023-04-03T06:50:34;6.20;62.40
69938;DHT22;57248;47.320;15.998;2023-04-03T06:53:06;6.72;61.43
69938;DHT22;57248;47.320;15.998;2023-04-03T06:55:32;7.18;61.33
69938;DHT22;57248;47.320;15.998;2023-04-03T06:58:04;7.25;61.02
69938;DHT22;57248;47.320;15.998;2023-04-03T07:00:30;6.31;60.74
69938;DHT22;57248;47.320;15.998;2023-04-03T07:03:02;6.53;60.87
69938;DHT22;57248;47.320;15.998;2023-04-03T07:05:28;6.28;61.17
69938;DHT22;57248;47.320;15.998;2023-04-03T07:08:00;6.29;61.59
69938;DHT22;57248;47.320;15.998;2023-04-03T07:10:38;6.24;61.87
69938;DHT22;57248;47.320;15.998;2023-04-03T07:13:10;6.69;60.90
69938;DHT22;57248;47.320;15.998;2023-04-03T07:15:45;7.75;57.93
69938;DHT22;57248;47.320;15.998;2023-04-03T07:18:17;9.27;54.48
69938;DHT22;57248;47.320;15.998;2023-04-03T07:20:43;9.95;53.98
69938;DHT22;57248;47.320;15.998;2023-04-03T07:23:15;10.62;52.09
69938;DHT22;57248;47.320;15.998;2023-04-03T07:25:50;9.98;52.95
69938;DHT22;57248;47.320;15.998;2023-04-03T07:28:22;10.55;52.27
69938;DHT22;57248;47.320;15.998;2023-04-03T07:31:01;10.28;51.31
69938;DHT22;57248;47.320;15.998;2023-04-03T07:33:34;9.95;50.32
69938;DHT22;57248;47.320;15.998;2023-04-03T07:36:01;9.91;51.62
69938;DHT22;57248;47.320;15.998;2023-04-03T07:38:37;10.49;50.54
69938;DHT22;57248;47.320;15.998;2023-04-03T07:41:13;11.32;49.41
69938;DHT22;57248;47.320;15.998;2023-04-03T07:43:46;10.53;48.18
69938;DHT22;57248;47.320;15.998;2023-04-03T07:46:18;10.22;49.90
69938;DHT22;57248;47.320;15.998;2023-04-03T07:48:50;11.10;48.24
69938;DHT22;57248;47.320;15.998;2023-04-03T07:51:22;11.43;46.67
69938;DHT22;57248;47.320;15.998;2023-04-03T07:53:56;11.36;48.06
69938;DHT22;57248;47.320;15.998;2023-04-03T07:56:28;10.64;50.87
69938;DHT22;57248;47.320;15.998;2023-04-03T07:59:00;12.57;46.35
69938;DHT22;57248;47.320;15.998;2023-04-03T08:01:32;12.47;45.90
69938;DHT22;57248;47.320;15.998;2023-04-03T08:04:05;11.21;46.41
69938;DHT22;57248;47.320;15.998;2023-04-03T08:06:38;10.12;48.34
69938;DHT22;57248;47.320;15.998;2023-04-03T08:09:18;11.27;47.83
69938;DHT22;57248;47.320;15.998;2023-04-03T08:11:51;10.06;49.04
69938;DHT22;57248;47.320;15.998;2023-04-03T08:14:25;12.19;47.58
69938;DHT22;57248;47.320;15.998;2023-04-03T08:16:57;12.29;44.75
69938;DHT22;57248;47.320;15.998;2023-04-03T08:19:29;9.91;48.81
69938;DHT22;57248;47.320;15.998;2023-04-03T08:22:01;9.24;49.65
69938;DHT22;57248;47.320;15.998;2023-04-03T08:24:34;10.26;49.78
69938;DHT22;57248;47.320;15.998;2023-04-03T08:27:08;9.88;50.88
69938;DHT22;57248;47.320;15.998;2023-04-03T08:29:40;9.50;52.03
69938;DHT22;57248;47.320;15.998;2023-04-03T08:32:12;8.88;53.66
69938;DHT22;57248;47.320;15.998;2023-04-03T08:34:44;8.09;55.02
69938;DHT22;57248;47.320;15.998;2023-04-03T08:37:17;7.72;56.54
69938;DHT22;57248;47.320;15.998;2023-04-03T08:39:51;7.21;59.80
69938;DHT22;57248;47.320;15.998;2023-04-03T08:45:33;6.17;60.98
69938;DHT22;57248;47.320;15.998;2023-04-03T08:48:22;6.04;61.98
69938;DHT22;57248;47.320;15.998;2023-04-03T08:50:59;7.00;62.46
69938;DHT22;57248;47.320;15.998;2023-04-03T08:53:39;6.26;63.15
69938;DHT22;57248;47.320;15.998;2023-04-03T08:56:13;6.48;62.91
69938;DHT22;57248;47.320;15.998;2023-04-03T08:58:58;6.10;63.48
69938;DHT22;57248;47.320;15.998;2023-04-03T09:01:37;5.91;63.33
69938;DHT22;57248;47.320;15.998;2023-04-03T09:04:17;6.24;62.18
69938;DHT22;57248;47.320;15.998;2023-04-03T09:07:18;6.42;61.60
69938;DHT22;57248;47.320;15.998;2023-04-03T09:09:54;6.21;57.69
69938;DHT22;57248;47.320;15.998;2023-04-03T09:12:41;5.95;57.46
69938;DHT22;57248;47.320;15.998;2023-04-03T09:15:20;6.87;55.73
69938;DHT22;57248;47.320;15.998;2023-04-03T09:21:08;6.99;54.86
69938;DHT22;57248;47.320;15.998;2023-04-03T09:23:56;6.61;55.23
69938;DHT22;57248;47.320;15.998;2023-04-03T09:29:22;6.29;54.57
69938;DHT22;57248;47.320;15.998;2023-04-03T09:32:02;6.03;55.62
69938;DHT22;57248;47.320;15.998;2023-04-03T09:34:39;6.63;54.56
69938;DHT22;57248;47.320;15.998;2023-04-03T09:37:33;7.14;54.07
69938;DHT22;57248;47.320;15.998;2023-04-03T09:45:49;6.82;54.15
69938;DHT22;57248;47.320;15.998;2023-04-03T09:48:26;6.96;54.51
69938;DHT22;57248;47.320;15.998;2023-04-03T09:51:02;7.62;54.00
69938;DHT22;57248;47.320;15.998;2023-04-03T09:53:43;7.47;52.58
69938;DHT22;57248;47.320;15.998;2023-04-03T10:01:32;7.63;52.52
69938;DHT22;57248;47.320;15.998;2023-04-03T10:04:16;7.90;51.14
69938;DHT22;57248;47.320;15.998;2023-04-03T10:06:54;11.46;47.70
69938;DHT22;57248;47.320;15.998;2023-04-03T10:09:33;16.12;38.87
69938;DHT22;57248;47.320;15.998;2023-04-03T10:12:10;12.87;42.41
69938;DHT22;57248;47.320;15.998;2023-04-03T10:20:56;15.95;37.26
69938;DHT22;57248;47.320;15.998;2023-04-03T10:23:45;15.69;37.19
69938;DHT22;57248;47.320;15.998;2023-04-03T10:26:39;16.65;34.47
69938;DHT22;57248;47.320;15.998;2023-04-03T10:29:38;12.52;39.97
69938;DHT22;57248;47.320;15.998;2023-04-03T10:38:18;10.38;45.14
69938;DHT22;57248;47.320;15.998;2023-04-03T10:41:07;10.09;44.94
69938;DHT22;57248;47.320;15.998;2023-04-03T10:43:53;10.43;44.98
69938;DHT22;57248;47.320;15.998;2023-04-03T10:46:52;10.04;44.61
69938;DHT22;57248;47.320;15.998;2023-04-03T10:49:47;10.91;42.30
69938;DHT22;57248;47.320;15.998;2023-04-03T10:52:44;10.63;45.57
69938;DHT22;57248;47.320;15.998;2023-04-03T10:57:58;11.24;44.60
69938;DHT22;57248;47.320;15.998;2023-04-03T11:00:43;10.57;43.61
69938;DHT22;57248;47.320;15.998;2023-04-03T11:03:36;10.81;43.57
69938;DHT22;57248;47.320;15.998;2023-04-03T11:06:16;10.16;45.74
69938;DHT22;57248;47.320;15.998;2023-04-03T11:09:02;13.82;39.00
69938;DHT22;57248;47.320;15.998;2023-04-03T11:11:49;12.62;43.22
69938;DHT22;57248;47.320;15.998;2023-04-03T11:14:30;17.40;35.40
69938;DHT22;57248;47.320;15.998;2023-04-03T11:17:24;17.29;33.05
69938;DHT22;57248;47.320;15.998;2023-04-03T11:22:42;20.23;28.48
69938;DHT22;57248;47.320;15.998;2023-04-03T11:25:19;14.56;30.64
69938;DHT22;57248;47.320;15.998;2023-04-03T11:27:59;13.74;35.51
69938;DHT22;57248;47.320;15.998;2023-04-03T11:36:27;10.70;39.51
69938;DHT22;57248;47.320;15.998;2023-04-03T11:39:10;11.15;42.19
69938;DHT22;57248;47.320;15.998;2023-04-03T11:41:45;11.27;42.62
69938;DHT22;57248;47.320;15.998;2023-04-03T11:44:38;11.27;40.91
69938;DHT22;57248;47.320;15.998;2023-04-03T11:47:12;11.15;40.91
69938;DHT22;57248;47.320;15.998;2023-04-03T11:50:04;10.81;40.64
69938;DHT22;57248;47.320;15.998;2023-04-03T12:00:51;20.03;30.97
69938;DHT22;57248;47.320;15.998;2023-04-03T12:11:31;16.43;33.50
69938;DHT22;57248;47.320;15.998;2023-04-03T12:14:04;16.63;34.09
69938;DHT22;57248;47.320;15.998;2023-04-03T12:24:42;17.69;31.50
69938;DHT22;57248;47.320;15.998;2023-04-03T12:27:25;18.06;31.05
69938;DHT22;57248;47.320;15.998;2023-04-03T12:35:21;15.23;34.51
69938;DHT22;57248;47.320;15.998;2023-04-03T12:41:27;20.57;27.49
69938;DHT22;57248;47.320;15.998;2023-04-03T12:47:00;16.26;31.93
69938;DHT22;57248;47.320;15.998;2023-04-03T12:49:40;15.89;32.12
69938;DHT22;57248;47.320;15.998;2023-04-03T12:52:22;12.99;36.14
69938;DHT22;57248;47.320;15.998;2023-04-03T12:54:57;14.26;37.88
69938;DHT22;57248;47.320;15.998;2023-04-03T12:57:30;21.47;28.77
69938;DHT22;57248;47.320;15.998;2023-04-03T13:00:30;14.66;34.65
69938;DHT22;57248;47.320;15.998;2023-04-03T13:03:06;18.73;29.03
69938;DHT22;57248;47.320;15.998;2023-04-03T13:05:53;19.87;27.57
69938;DHT22;57248;47.320;15.998;2023-04-03T13:08:25;16.98;29.92
69938;DHT22;57248;47.320;15.998;2023-04-03T13:11:11;18.06;30.01
69938;DHT22;57248;47.320;15.998;2023-04-03T13:14:00;21.08;27.99
69938;DHT22;57248;47.320;15.998;2023-04-03T13:16:33;17.71;29.65
69938;DHT22;57248;47.320;15.998;2023-04-03T13:19:05;18.53;28.02
69938;DHT22;57248;47.320;15.998;2023-04-03T13:21:32;20.29;28.31
69938;DHT22;57248;47.320;15.998;2023-04-03T13:24:05;20.51;28.35
69938;DHT22;57248;47.320;15.998;2023-04-03T13:26:37;13.98;34.38
69938;DHT22;57248;47.320;15.998;2023-04-03T13:29:29;14.45;33.93
69938;DHT22;57248;47.320;15.998;2023-04-03T13:32:03;18.18;29.33
69938;DHT22;57248;47.320;15.998;2023-04-03T13:34:38;20.05;27.85
69938;DHT22;57248;47.320;15.998;2023-04-03T13:37:26;11.39;36.54
69938;DHT22;57248;47.320;15.998;2023-04-03T13:40:19;10.29;40.57
69938;DHT22;57248;47.320;15.998;2023-04-03T13:43:02;18.90;29.33
69938;DHT22;57248;47.320;15.998;2023-04-03T13:45:35;20.75;27.12
69938;DHT22;57248;47.320;15.998;2023-04-03T13:48:17;19.48;26.61
69938;DHT22;57248;47.320;15.998;2023-04-03T13:56:31;19.90;26.74
69938;DHT22;57248;47.320;15.998;2023-04-03T14:01:50;20.34;26.17
69938;DHT22;57248;47.320;15.998;2023-04-03T14:04:26;19.31;27.41
69938;DHT22;57248;47.320;15.998;2023-04-03T14:06:59;17.70;28.29
69938;DHT22;57248;47.320;15.998;2023-04-03T14:09:38;14.01;30.63
69938;DHT22;57248;47.320;15.998;2023-04-03T14:14:56;12.34;33.43
69938;DHT22;57248;47.320;15.998;2023-04-03T14:17:29;10.77;36.54
69938;DHT22;57248;47.320;15.998;2023-04-03T14:20:03;11.73;34.42
69938;DHT22;57248;47.320;15.998;2023-04-03T14:22:35;10.12;38.39
69938;DHT22;57248;47.320;15.998;2023-04-03T14:25:07;9.29;38.70
69938;DHT22;57248;47.320;15.998;2023-04-03T14:27:39;9.51;39.75
69938;DHT22;57248;47.320;15.998;2023-04-03T14:30:16;9.27;40.03
69938;DHT22;57248;47.320;15.998;2023-04-03T14:32:49;13.71;34.26
69938;DHT22;57248;47.320;15.998;2023-04-03T14:35:17;10.16;36.20
69938;DHT22;57248;47.320;15.998;2023-04-03T14:37:50;9.63;39.96
69938;DHT22;57248;47.320;15.998;2023-04-03T14:40:25;10.21;36.94
69938;DHT22;57248;47.320;15.998;2023-04-03T14:42:57;13.91;32.88
69938;DHT22;57248;47.320;15.998;2023-04-03T14:45:30;11.17;34.51
69938;DHT22;57248;47.320;15.998;2023-04-03T14:48:02;14.14;31.91
69938;DHT22;57248;47.320;15.998;2023-04-03T14:50:36;16.13;29.68
69938;DHT22;57248;47.320;15.998;2023-04-03T14:53:09;12.24;33.65
69938;DHT22;57248;47.320;15.998;2023-04-03T14:55:46;13.24;31.43
69938;DHT22;57248;47.320;15.998;2023-04-03T14:58:20;12.85;33.60
69938;DHT22;57248;47.320;15.998;2023-04-03T15:00:52;12.60;33.99
69938;DHT22;57248;47.320;15.998;2023-04-03T15:03:24;10.15;37.51
69938;DHT22;57248;47.320;15.998;2023-04-03T15:05:56;11.21;37.20
69938;DHT22;57248;47.320;15.998;2023-04-03T15:08:29;9.60;38.80
69938;DHT22;57248;47.320;15.998;2023-04-03T15:11:02;9.47;38.29
69938;DHT22;57248;47.320;15.998;2023-04-03T15:13:41;9.50;40.34
69938;DHT22;57248;47.320;15.998;2023-04-03T15:16:18;10.31;37.49
69938;DHT22;57248;47.320;15.998;2023-04-03T15:18:50;11.25;36.75
69938;DHT22;57248;47.320;15.998;2023-04-03T15:21:23;10.28;36.82
69938;DHT22;57248;47.320;15.998;2023-04-03T15:23:55;10.57;36.25
69938;DHT22;57248;47.320;15.998;2023-04-03T15:26:27;9.02;37.70
69938;DHT22;57248;47.320;15.998;2023-04-03T15:28:59;9.67;37.52
69938;DHT22;57248;47.320;15.998;2023-04-03T15:31:31;9.13;36.82
69938;DHT22;57248;47.320;15.998;2023-04-03T15:34:03;9.16;37.38
69938;DHT22;57248;47.320;15.998;2023-04-03T15:36:35;9.37;37.41
69938;DHT22;57248;47.320;15.998;2023-04-03T15:39:07;8.40;38.48
69938;DHT22;57248;47.320;15.998;2023-04-03T15:41:33;9.37;38.27
69938;DHT22;57248;47.320;15.998;2023-04-03T15:44:04;8.51;38.26
69938;DHT22;57248;47.320;15.998;2023-04-03T15:46:38;8.84;38.76
69938;DHT22;57248;47.320;15.998;2023-04-03T15:49:12;8.79;38.38
69938;DHT22;57248;47.320;15.998;2023-04-03T15:51:44;8.84;37.77
69938;DHT22;57248;47.320;15.998;2023-04-03T15:54:11;8.44;39.07
69938;DHT22;57248;47.320;15.998;2023-04-03T15:56:44;8.20;39.91
69938;DHT22;57248;47.320;15.998;2023-04-03T15:59:17;8.17;37.90
69938;DHT22;57248;47.320;15.998;2023-04-03T16:01:50;7.47;39.48
69938;DHT22;57248;47.320;15.998;2023-04-03T16:04:22;7.68;39.98
69938;DHT22;57248;47.320;15.998;2023-04-03T16:06:54;7.45;40.44
69938;DHT22;57248;47.320;15.998;2023-04-03T16:09:35;7.62;39.93
69938;DHT22;57248;47.320;15.998;2023-04-03T16:12:13;6.55;39.78
69938;DHT22;57248;47.320;15.998;2023-04-03T16:14:45;6.63;40.05
69938;DHT22;57248;47.320;15.998;2023-04-03T16:17:17;6.31;41.55
69938;DHT22;57248;47.320;15.998;2023-04-03T16:19:49;6.76;42.36
69938;DHT22;57248;47.320;15.998;2023-04-03T16:22:23;6.46;41.06
69938;DHT22;57248;47.320;15.998;2023-04-03T16:24:57;6.05;41.43
69938;DHT22;57248;47.320;15.998;2023-04-03T16:27:29;6.14;41.31
69938;DHT22;57248;47.320;15.998;2023-04-03T16:29:57;5.77;42.08
69938;DHT22;57248;47.320;15.998;2023-04-03T16:32:30;5.46;41.78
69938;DHT22;57248;47.320;15.998;2023-04-03T16:35:04;5.50;42.34
69938;DHT22;57248;47.320;15.998;2023-04-03T16:37:39;5.26;43.18
69938;DHT22;57248;47.320;15.998;2023-04-03T16:40:13;5.38;43.59
69938;DHT22;57248;47.320;15.998;2023-04-03T16:42:45;4.99;44.41
69938;DHT22;57248;47.320;15.998;2023-04-03T16:45:17;5.19;44.23
69938;DHT22;57248;47.320;15.998;2023-04-03T16:47:49;5.14;45.41
69938;DHT22;57248;47.320;15.998;2023-04-03T16:50:21;4.67;45.39
69938;DHT22;57248;47.320;15.998;2023-04-03T16:52:53;4.56;46.13
69938;DHT22;57248;47.320;15.998;2023-04-03T16:55:25;4.39;47.03
69938;DHT22;57248;47.320;15.998;2023-04-03T16:57:57;4.40;46.73
69938;DHT22;57248;47.320;15.998;2023-04-03T17:00:33;4.26;47.16
69938;DHT22;57248;47.320;15.998;2023-04-03T17:03:05;4.05;46.81
69938;DHT22;57248;47.320;15.998;2023-04-03T17:05:37;4.02;47.40
69938;DHT22;57248;47.320;15.998;2023-04-03T17:08:09;4.01;47.53
69938;DHT22;57248;47.320;15.998;2023-04-03T17:10:48;3.89;47.19
69938;DHT22;57248;47.320;15.998;2023-04-03T17:13:23;3.79;47.44
69938;DHT22;57248;47.320;15.998;2023-04-03T17:16:06;3.67;47.67
69938;DHT22;57248;47.320;15.998;2023-04-03T17:18:39;3.68;47.51
69938;DHT22;57248;47.320;15.998;2023-04-03T17:21:13;3.43;47.20
69938;DHT22;57248;47.320;15.998;2023-04-03T17:23:49;3.40;48.07
69938;DHT22;57248;47.320;15.998;2023-04-03T17:26:23;3.37;48.53
69938;DHT22;57248;47.320;15.998;2023-04-03T17:28:57;3.27;47.78
69938;DHT22;57248;47.320;15.998;2023-04-03T17:31:28;3.12;47.29
69938;DHT22;57248;47.320;15.998;2023-04-03T17:34:01;3.31;53.37
69938;DHT22;57248;47.320;15.998;2023-04-03T17:36:33;3.09;48.08
69938;DHT22;57248;47.320;15.998;2023-04-03T17:39:06;3.14;48.54
69938;DHT22;57248;47.320;15.998;2023-04-03T17:41:38;2.92;48.82
69938;DHT22;57248;47.320;15.998;2023-04-03T17:44:11;2.89;47.93
69938;DHT22;57248;47.320;15.998;2023-04-03T17:46:45;2.82;48.53
69938;DHT22;57248;47.320;15.998;2023-04-03T17:49:17;2.81;49.26
69938;DHT22;57248;47.320;15.998;2023-04-03T17:51:51;2.65;48.70
69938;DHT22;57248;47.320;15.998;2023-04-03T17:54:24;2.65;49.01
69938;DHT22;57248;47.320;15.998;2023-04-03T17:56:56;2.52;50.05